Амдерма

Карта отелей и гостиниц, располагающихся рядом с аэропортом Амдерма :

Амдерма Ненецкий автономный округ 69° 45' 47.9412" N, 61° 33' 45.2988" E
Амдерма Ненецкий автономный округ 69° 45' 47.9412" N, 61° 33' 45.2988" E
Код аэродрома ИКАО
ULDD
Код аэродрома RU
УЛДД
Координаты
N69.76332° E061.56258°
Превышение над уровнем моря
4
Основная полоса
07/25
Курс магнитный
073,2/253,2
Длина основной ВПП
2600
Ширина основной ВПП
55
Покрытие основной ВПП
Твёрдое (бетон)
Освещение ВПП
Постоянное
Тип: 
Аэродром
Класс аэродрома: 
Принадлежность: 
ГА
Статус: 
Действующий
Сайт: 
http://amderma-air.ru/
E-mail аэродрома: 
amdermasobolev13@rambler.ru
Страна: 
Россия
Регион: 
Ненецкий автономный округ
Город: 
Дополнительная информация: 
Гражданский региональный аэропорт 2-го класса пос. Амдерма. Оператор: ФКП «Аэропорт Амдерма». Нкр.(600)м. Грузонапряженность ВПП до 200 т. Военный позывной "Логичный". ЭССО: Луч-2. ДПРМ: 326-FW (255)м; БПРМ: 672-F (70)м. ДПРМ: 326-AE БПРМ: 672-А. Военный индекс: XLDD / ЬЛДД.

Найти трансфер

С помощью этой формы Вы можете найти трансфер из аэропорта Амдерма в город, аэропорт или вокзал:

Карта места

Javascript is required to view this map.

Погода в аэропортах:

Авиационная погода в Краснодаре

Регион: 
Погода METAR: 
URKK 241700Z 36005MPS 9999 -SHRA BKN031CB 06/04 Q1024 R05R/290060 TEMPO 2000 TSRA SCT005 BKN020CB RMK QFE765
Время наблюдения
2021-10-24T17:00:00Z
Температура C
6.0
Точка росы
4.0
Направление ветра
360
Скорость ветра (узлы)
10
Метео видимость
6.21
Явления погоды
-SHRA
Условия полета
VFR
Аэропорт подробнее: 

Авиационная погода в аэропорту Алыкель

Регион: 
Погода METAR: 
UOOO 241700Z 06003MPS 3100 -SN SCT012 M03/M03 Q0987 R01/491048 NOSIG RMK QFE726/0968
Время наблюдения
2021-10-24T17:00:00Z
Температура C
-3.0
Точка росы
-3.0
Направление ветра
60
Скорость ветра (узлы)
6
Метео видимость
1.93
Явления погоды
-SN
Условия полета
IFR
Аэропорт подробнее: 

Авиационная погода в Нижнем Новгороде

Регион: 
Погода METAR: 
UWGG 241700Z 31006MPS 9999 -SHRA OVC010CB 02/01 Q1011 R36R/290050 NOSIG
Время наблюдения
2021-10-24T17:00:00Z
Температура C
2.0
Точка росы
1.0
Направление ветра
310
Скорость ветра (узлы)
12
Метео видимость
6.21
Явления погоды
-SHRA
Условия полета
MVFR
Аэропорт подробнее: 

Авиационная погода в Зонгулдаке

Регион: 
Погода METAR: 
LTAS 241350Z 04003KT 340V110 6000 -SHRA FEW009 BKN023 BKN080 12/12 Q1026
Время наблюдения
2021-10-24T13:50:00Z
Температура C
12.0
Точка росы
12.0
Направление ветра
40
Скорость ветра (узлы)
3
Метео видимость
3.73
Явления погоды
-SHRA
Условия полета
MVFR